Time;durP1;ratioP1;P1;durP2;ratioP2;P2;SDS_P1;SDS_P2;PMS_P1;PMS_P2;Temp;Humidity;BMP_temperature;BMP_pressure;BME280_temperature;BME280_humidity;BME280_pressure;Samples;Min_cycle;Max_cycle;Signal;HPM_P1;HPM_P2
2022/11/01 00:00:23;;;;;;;;;;;;;;;17.33;75.02;100467.84;1297747;22;673;-79
2022/11/01 00:01:14;;;;;;;;;;;;;;;17.34;74.68;100470.38;1297787;22;614;-79
2022/11/01 00:02:04;;;;;;;;;;;;;;;17.35;75.22;100473.91;1297668;22;1897;-79
2022/11/01 00:02:55;;;;;;;;;;;;;;;17.34;75.01;100467.69;1297813;22;669;-79
2022/11/01 00:03:45;;;;;;;;;;;;;;;17.35;75.59;100465.84;1297858;22;613;-79
2022/11/01 00:04:36;;;;;;;;;;;;;;;17.34;74.90;100469.53;1297931;22;637;-79
2022/11/01 00:05:26;;;;;;;;;;;;;;;17.34;75.14;100461.44;1298847;22;644;-79
2022/11/01 00:06:16;;;;;;;;;;;;;;;17.33;75.45;100465.13;1297814;22;597;-79
2022/11/01 00:07:07;;;;;;;;;;;;;;;17.34;74.75;100464.13;1297614;22;652;-79
2022/11/01 00:07:57;;;;;;;;;;;;;;;17.33;75.14;100467.84;1297811;22;668;-79
2022/11/01 00:08:48;;;;;;;;;;;;;;;17.32;75.14;100466.97;1297872;22;653;-79
2022/11/01 00:09:38;;;;;;;;;;;;;;;17.34;75.54;100467.69;1297775;22;679;-79
2022/11/01 00:10:29;;;;;;;;;;;;;;;17.33;75.08;100463.28;1297852;22;720;-79
2022/11/01 00:11:19;;;;;;;;;;;;;;;17.34;75.33;100466.84;1297668;22;763;-79
2022/11/01 00:12:09;;;;;;;;;;;;;;;17.32;75.26;100466.13;1297797;22;625;-79
2022/11/01 00:13:00;;;;;;;;;;;;;;;17.32;75.26;100463.44;1297899;22;616;-79
2022/11/01 00:13:50;;;;;;;;;;;;;;;17.34;74.83;100461.44;1297876;22;620;-79
2022/11/01 00:14:41;;;;;;;;;;;;;;;17.33;74.98;100465.13;1297736;22;695;-80
2022/11/01 00:15:31;;;;;;;;;;;;;;;17.32;74.83;100468.81;1297738;22;609;-78
2022/11/01 00:16:22;;;;;;;;;;;;;;;17.32;75.42;100460.75;1297915;22;660;-79
2022/11/01 00:17:12;;;;;;;;;;;;;;;17.32;75.57;100464.28;1296737;22;571;-80
2022/11/01 00:18:02;;;;;;;;;;;;;;;17.31;75.10;100459.91;1296641;22;779;-79
2022/11/01 00:18:53;;;;;;;;;;;;;;;17.32;75.38;100458.06;1297130;22;605;-79
2022/11/01 00:19:43;;;;;;;;;;;;;;;17.32;74.54;100455.38;1297708;22;667;-79
2022/11/01 00:20:34;;;;;;;;;;;;;;;17.32;74.92;100458.06;1298022;22;672;-79
2022/11/01 00:21:24;;;;;;;;;;;;;;;17.32;75.08;100455.38;1297684;22;601;-80
2022/11/01 00:22:14;;;;;;;;;;;;;;;17.32;75.17;100450.81;1297847;22;1928;-80
2022/11/01 00:23:05;;;;;;;;;;;;;;;17.32;75.24;100444.59;1297609;22;649;-80
2022/11/01 00:23:55;;;;;;;;;;;;;;;17.31;74.95;100445.59;1297814;22;648;-79
2022/11/01 00:24:46;;;;;;;;;;;;;;;17.31;74.60;100449.13;1297594;22;628;-79
2022/11/01 00:25:36;;;;;;;;;;;;;;;17.31;74.54;100446.44;1297807;22;601;-79
2022/11/01 00:26:27;;;;;;;;;;;;;;;17.31;75.28;100442.91;1297782;22;609;-80
2022/11/01 00:27:18;;;;;;;;;;;;;;;17.31;75.40;100437.50;1297658;22;621;-80
2022/11/01 00:28:09;;;;;;;;;;;;;;;17.31;75.30;100437.50;1297602;22;861;-80
2022/11/01 00:28:59;;;;;;;;;;;;;;;17.30;75.67;100441.19;1297699;22;660;-80
2022/11/01 00:29:50;;;;;;;;;;;;;;;17.30;75.22;100442.03;1297855;22;608;-80
2022/11/01 00:30:40;;;;;;;;;;;;;;;17.30;75.08;100442.03;1297888;22;668;-78
2022/11/01 00:31:31;;;;;;;;;;;;;;;17.30;75.19;100436.66;1297278;22;637;-80
2022/11/01 00:32:21;;;;;;;;;;;;;;;17.31;75.40;100442.91;1297688;22;648;-79
2022/11/01 00:33:12;;;;;;;;;;;;;;;17.31;74.97;100442.91;1297774;22;692;-79
2022/11/01 00:34:04;;;;;;;;;;;;;;;17.31;75.18;100440.19;1297644;22;695;-79
2022/11/01 00:34:54;;;;;;;;;;;;;;;17.30;74.81;100444.75;1297819;22;653;-79
2022/11/01 00:35:47;;;;;;;;;;;;;;;17.31;75.36;100442.91;1298065;22;633;-78
2022/11/01 00:36:37;;;;;;;;;;;;;;;17.31;74.80;100440.19;1297057;22;591;-78
2022/11/01 00:37:28;;;;;;;;;;;;;;;17.30;75.17;100442.03;1297651;22;648;-79
2022/11/01 00:38:18;;;;;;;;;;;;;;;17.29;75.10;100440.34;1297690;22;676;-78
2022/11/01 00:39:09;;;;;;;;;;;;;;;17.30;75.85;100441.19;1297802;22;638;-79
2022/11/01 00:39:59;;;;;;;;;;;;;;;17.30;75.49;100443.88;1297552;22;600;-78
2022/11/01 00:40:50;;;;;;;;;;;;;;;17.30;75.20;100438.50;1297791;22;695;-78
2022/11/01 00:41:40;;;;;;;;;;;;;;;17.30;75.13;100439.34;1298547;22;603;-79
2022/11/01 00:42:30;;;;;;;;;;;;;;;17.29;75.77;100434.97;1297754;22;633;-79
2022/11/01 00:43:21;;;;;;;;;;;;;;;17.29;75.18;100434.97;1297852;22;641;-79
2022/11/01 00:44:11;;;;;;;;;;;;;;;17.28;75.92;100438.66;1297332;22;617;-79
2022/11/01 00:45:03;;;;;;;;;;;;;;;17.30;75.27;100430.41;1290254;23;660;-79
2022/11/01 00:45:54;;;;;;;;;;;;;;;17.30;75.37;100433.97;1289887;23;668;-79
2022/11/01 00:46:44;;;;;;;;;;;;;;;17.30;75.53;100433.13;1299418;22;644;-78
2022/11/01 00:47:35;;;;;;;;;;;;;;;17.30;74.80;100430.41;1297582;22;1242;-78
2022/11/01 00:48:25;;;;;;;;;;;;;;;17.30;75.45;100425.03;1290973;22;1035;-78
2022/11/01 00:49:16;;;;;;;;;;;;;;;17.30;74.91;100435.81;1291271;22;1127;-79
2022/11/01 00:50:06;;;;;;;;;;;;;;;17.30;75.34;100427.72;1295411;22;1166;-78
2022/11/01 00:50:56;;;;;;;;;;;;;;;17.30;75.95;100420.50;1297804;22;661;-79
2022/11/01 00:51:47;;;;;;;;;;;;;;;17.31;75.14;100421.34;1297792;22;641;-79
2022/11/01 00:52:37;;;;;;;;;;;;;;;17.31;75.13;100421.34;1297688;22;696;-78
2022/11/01 00:53:28;;;;;;;;;;;;;;;17.31;74.78;100416.81;1297751;22;613;-79
2022/11/01 00:54:18;;;;;;;;;;;;;;;17.31;75.45;100415.97;1297636;22;672;-78
2022/11/01 00:55:09;;;;;;;;;;;;;;;17.31;75.50;100413.25;1297662;22;676;-79
2022/11/01 00:55:59;;;;;;;;;;;;;;;17.32;75.14;100417.66;1297635;22;597;-79
2022/11/01 00:56:50;;;;;;;;;;;;;;;17.31;75.52;100410.56;1297767;22;609;-78
2022/11/01 00:57:40;;;;;;;;;;;;;;;17.32;75.40;100406.88;1297710;22;610;-79
2022/11/01 00:58:31;;;;;;;;;;;;;;;17.30;75.03;100411.56;1297703;22;652;-78
2022/11/01 00:59:21;;;;;;;;;;;;;;;17.29;75.49;100399.09;1297658;22;648;-78
2022/11/01 01:00:11;;;;;;;;;;;;;;;17.30;75.33;100406.19;1297568;22;711;-79
2022/11/01 01:01:02;;;;;;;;;;;;;;;17.30;75.15;100404.34;1297703;22;628;-79
2022/11/01 01:01:52;;;;;;;;;;;;;;;17.29;75.21;100404.50;1297653;22;637;-79
2022/11/01 01:02:43;;;;;;;;;;;;;;;17.29;75.88;100399.94;1297323;22;620;-78
2022/11/01 01:03:33;;;;;;;;;;;;;;;17.30;75.35;100395.41;1296428;22;649;-79
2022/11/01 01:04:23;;;;;;;;;;;;;;;17.30;75.62;100403.50;1296887;22;625;-80
2022/11/01 01:05:14;;;;;;;;;;;;;;;17.31;75.43;100399.81;1297809;22;668;-80
2022/11/01 01:06:04;;;;;;;;;;;;;;;17.30;75.90;100400.81;1297571;22;629;-79
2022/11/01 01:06:55;;;;;;;;;;;;;;;17.30;75.18;100392.72;1297781;22;640;-79
2022/11/01 01:07:45;;;;;;;;;;;;;;;17.30;75.30;100407.03;1297726;22;624;-80
2022/11/01 01:08:36;;;;;;;;;;;;;;;17.29;75.49;100402.63;1297831;22;680;-80
2022/11/01 01:09:26;;;;;;;;;;;;;;;17.28;75.07;100400.09;1297561;22;668;-80
2022/11/01 01:10:16;;;;;;;;;;;;;;;17.29;74.95;100397.25;1298564;22;884;-80
2022/11/01 01:11:07;;;;;;;;;;;;;;;17.30;75.49;100395.41;1297823;22;653;-79
2022/11/01 01:11:58;;;;;;;;;;;;;;;17.31;75.57;100391.72;1297602;22;657;-80
2022/11/01 01:12:48;;;;;;;;;;;;;;;17.29;74.80;100397.25;1297554;22;585;-79
2022/11/01 01:13:38;;;;;;;;;;;;;;;17.29;75.53;100389.19;1297630;22;651;-80
2022/11/01 01:14:29;;;;;;;;;;;;;;;17.30;75.59;100390.03;1297897;22;649;-79
2022/11/01 01:15:19;;;;;;;;;;;;;;;17.29;75.57;100386.47;1297692;22;653;-79
2022/11/01 01:16:10;;;;;;;;;;;;;;;17.28;75.65;100390.19;1297801;22;649;-80
2022/11/01 01:17:00;;;;;;;;;;;;;;;17.29;75.54;100391.03;1297842;22;616;-80
2022/11/01 01:17:51;;;;;;;;;;;;;;;17.30;75.44;100392.72;1297702;22;633;-79
2022/11/01 01:18:42;;;;;;;;;;;;;;;17.29;74.89;100391.03;1297801;22;625;-79
2022/11/01 01:19:32;;;;;;;;;;;;;;;17.29;75.79;100396.41;1297744;22;668;-79
2022/11/01 01:20:23;;;;;;;;;;;;;;;17.29;75.64;100380.25;1297602;22;680;-80
2022/11/01 01:21:14;;;;;;;;;;;;;;;17.28;75.76;100382.09;1297775;22;597;-80
2022/11/01 01:22:04;;;;;;;;;;;;;;;17.29;75.14;100377.56;1297387;22;1943;-79
2022/11/01 01:22:55;;;;;;;;;;;;;;;17.28;75.97;100387.47;1297913;22;652;-79
2022/11/01 01:23:47;;;;;;;;;;;;;;;17.29;75.72;100377.56;1296921;22;668;-80
2022/11/01 01:24:44;;;;;;;;;;;;;;;17.28;75.12;100386.63;1296809;22;645;-80
2022/11/01 01:25:34;;;;;;;;;;;;;;;17.27;75.62;100387.63;1297599;22;641;-79
2022/11/01 01:26:25;;;;;;;;;;;;;;;17.27;75.42;100387.63;1297763;22;677;-79
2022/11/01 01:27:15;;;;;;;;;;;;;;;17.27;75.85;100384.94;1297608;22;605;-79
2022/11/01 01:28:05;;;;;;;;;;;;;;;17.27;75.56;100382.25;1297597;22;626;-79
2022/11/01 01:28:56;;;;;;;;;;;;;;;17.26;76.15;100385.94;1297778;22;672;-79
2022/11/01 01:29:46;;;;;;;;;;;;;;;17.26;75.14;100388.63;1297543;22;615;-80
2022/11/01 01:30:37;;;;;;;;;;;;;;;17.27;75.77;100382.25;1297696;22;598;-80
2022/11/01 01:31:27;;;;;;;;;;;;;;;17.29;75.42;100391.03;1297583;22;650;-80
2022/11/01 01:32:18;;;;;;;;;;;;;;;17.29;76.17;100380.25;1297623;22;641;-80
2022/11/01 01:33:08;;;;;;;;;;;;;;;17.29;75.27;100389.19;1297559;22;633;-79
2022/11/01 01:33:58;;;;;;;;;;;;;;;17.28;75.36;100389.31;1297570;22;625;-79
2022/11/01 01:34:49;;;;;;;;;;;;;;;17.28;75.59;100383.94;1297714;22;621;-78
2022/11/01 01:35:39;;;;;;;;;;;;;;;17.27;75.65;100382.25;1297466;22;653;-79
2022/11/01 01:36:30;;;;;;;;;;;;;;;17.26;75.49;100385.94;1297505;22;656;-79
2022/11/01 01:37:20;;;;;;;;;;;;;;;17.26;76.03;100381.41;1297443;22;634;-79
2022/11/01 01:38:11;;;;;;;;;;;;;;;17.28;75.96;100386.63;1297587;22;605;-80
2022/11/01 01:39:01;;;;;;;;;;;;;;;17.26;76.27;100381.41;1297762;22;657;-80
2022/11/01 01:39:51;;;;;;;;;;;;;;;17.27;75.86;100388.47;1297546;22;649;-78
2022/11/01 01:40:42;;;;;;;;;;;;;;;17.28;75.90;100389.31;1297712;22;633;-80
2022/11/01 01:42:42;;;;;;;;;;;;;;;17.27;75.71;100384.94;1295829;22;640;-78
2022/11/01 01:43:32;;;;;;;;;;;;;;;17.26;76.19;100383.25;1297458;22;636;-79
2022/11/01 01:44:22;;;;;;;;;;;;;;;17.27;75.74;100382.25;1297619;22;641;-79
2022/11/01 01:45:13;;;;;;;;;;;;;;;17.26;75.53;100380.56;1297784;22;633;-79
2022/11/01 01:46:03;;;;;;;;;;;;;;;17.27;75.98;100380.41;1297571;22;824;-79
2022/11/01 01:46:54;;;;;;;;;;;;;;;17.26;75.93;100376.00;1297586;22;676;-79
2022/11/01 01:47:44;;;;;;;;;;;;;;;17.26;76.28;100380.56;1297558;22;692;-79
2022/11/01 01:48:34;;;;;;;;;;;;;;;17.26;75.80;100381.41;1297483;22;603;-79
2022/11/01 01:49:25;;;;;;;;;;;;;;;17.27;76.46;100387.63;1297633;22;661;-78
2022/11/01 01:50:15;;;;;;;;;;;;;;;17.24;75.52;100382.56;1297282;22;1165;-79
2022/11/01 01:51:06;;;;;;;;;;;;;;;17.24;76.08;100383.41;1297684;22;703;-79
2022/11/01 01:51:56;;;;;;;;;;;;;;;17.23;76.11;100381.69;1297663;22;739;-79
2022/11/01 01:52:47;;;;;;;;;;;;;;;17.25;75.73;100373.47;1297521;22;640;-79
2022/11/01 01:53:37;;;;;;;;;;;;;;;17.25;75.66;100378.84;1297738;22;621;-79
2022/11/01 01:54:27;;;;;;;;;;;;;;;17.26;75.52;100380.56;1297598;22;672;-79
2022/11/01 01:55:18;;;;;;;;;;;;;;;17.26;76.21;100372.47;1297576;22;637;-79
2022/11/01 01:56:08;;;;;;;;;;;;;;;17.26;76.08;100380.56;1297002;22;640;-79
2022/11/01 01:56:59;;;;;;;;;;;;;;;17.24;76.00;100374.47;1296443;22;581;-79
2022/11/01 01:57:49;;;;;;;;;;;;;;;17.26;76.11;100375.16;1296510;22;691;-78
2022/11/01 01:58:39;;;;;;;;;;;;;;;17.26;75.46;100372.47;1297068;22;649;-79
2022/11/01 01:59:30;;;;;;;;;;;;;;;17.26;75.79;100375.16;1297718;22;766;-79
2022/11/01 02:00:21;;;;;;;;;;;;;;;17.24;76.27;100382.56;1297604;22;633;-79
2022/11/01 02:01:11;;;;;;;;;;;;;;;17.23;76.56;100376.31;1297393;22;606;-79
2022/11/01 02:02:02;;;;;;;;;;;;;;;17.24;75.87;100377.16;1297460;22;1904;-79
2022/11/01 02:02:52;;;;;;;;;;;;;;;17.24;76.10;100369.09;1297422;22;716;-79
2022/11/01 02:03:42;;;;;;;;;;;;;;;17.24;75.97;100374.47;1297593;22;572;-79
2022/11/01 02:04:33;;;;;;;;;;;;;;;17.25;75.97;100368.09;1297790;22;624;-79
2022/11/01 02:05:23;;;;;;;;;;;;;;;17.25;76.00;100362.69;1297392;22;612;-79
2022/11/01 02:06:14;;;;;;;;;;;;;;;17.26;75.87;100365.25;1297640;22;656;-79
2022/11/01 02:07:04;;;;;;;;;;;;;;;17.25;76.18;100362.69;1297663;22;624;-79
2022/11/01 02:07:55;;;;;;;;;;;;;;;17.26;75.75;100356.31;1297670;22;650;-78
2022/11/01 02:08:45;;;;;;;;;;;;;;;17.25;75.68;100358.16;1297860;22;782;-79
2022/11/01 02:09:35;;;;;;;;;;;;;;;17.24;76.09;100356.47;1297582;22;622;-79
2022/11/01 02:10:26;;;;;;;;;;;;;;;17.23;75.57;100359.31;1297665;22;676;-80
2022/11/01 02:11:16;;;;;;;;;;;;;;;17.23;75.60;100359.31;1297533;22;624;-79
2022/11/01 02:12:07;;;;;;;;;;;;;;;17.24;76.30;100352.94;1297544;22;663;-79
2022/11/01 02:12:57;;;;;;;;;;;;;;;17.23;75.76;100362.84;1296943;22;621;-79
2022/11/01 02:13:47;;;;;;;;;;;;;;;17.23;75.95;100353.94;1297668;22;609;-79
2022/11/01 02:14:39;;;;;;;;;;;;;;;17.24;75.96;100355.63;1297611;22;605;-79
2022/11/01 02:15:29;;;;;;;;;;;;;;;17.23;75.70;100356.63;1297577;22;632;-79
2022/11/01 02:16:20;;;;;;;;;;;;;;;17.22;75.46;100363.84;1297611;22;620;-79
2022/11/01 02:17:11;;;;;;;;;;;;;;;17.23;76.28;100357.47;1297408;22;601;-79
2022/11/01 02:18:01;;;;;;;;;;;;;;;17.22;75.66;100350.38;1298345;22;795;-78
2022/11/01 02:18:51;;;;;;;;;;;;;;;17.24;75.76;100350.22;1297694;22;613;-79
2022/11/01 02:19:42;;;;;;;;;;;;;;;17.21;75.52;100354.06;1297569;22;677;-79
2022/11/01 02:20:33;;;;;;;;;;;;;;;17.21;76.07;100350.53;1297505;22;680;-79
2022/11/01 02:21:23;;;;;;;;;;;;;;;17.23;76.27;100359.31;1297379;22;779;-79
2022/11/01 02:22:14;;;;;;;;;;;;;;;17.21;75.57;100356.78;1297619;22;1876;-79
2022/11/01 02:23:04;;;;;;;;;;;;;;;17.22;76.17;100355.78;1297607;22;661;-79
2022/11/01 02:23:54;;;;;;;;;;;;;;;17.23;76.14;100351.22;1297505;22;620;-79
2022/11/01 02:24:45;;;;;;;;;;;;;;;17.22;75.54;100358.47;1297573;22;653;-78
2022/11/01 02:25:35;;;;;;;;;;;;;;;17.21;75.73;100355.91;1297567;22;680;-78
2022/11/01 02:26:26;;;;;;;;;;;;;;;17.22;75.70;100355.78;1297606;22;708;-79
2022/11/01 02:27:16;;;;;;;;;;;;;;;17.22;76.25;100352.22;1297005;22;696;-78
2022/11/01 02:28:07;;;;;;;;;;;;;;;17.21;75.36;100356.78;1297429;22;586;-78
2022/11/01 02:28:57;;;;;;;;;;;;;;;17.22;75.76;100353.06;1297453;22;617;-78
2022/11/01 02:29:48;;;;;;;;;;;;;;;17.23;76.05;100349.38;1297419;22;619;-78
2022/11/01 02:30:38;;;;;;;;;;;;;;;17.23;75.85;100356.63;1297798;22;640;-79
2022/11/01 02:31:28;;;;;;;;;;;;;;;17.23;75.72;100359.31;1297534;22;623;-80
2022/11/01 02:32:19;;;;;;;;;;;;;;;17.24;76.16;100361.00;1297538;22;632;-79
2022/11/01 02:33:09;;;;;;;;;;;;;;;17.24;75.61;100345.69;1297471;22;629;-80
2022/11/01 02:34:00;;;;;;;;;;;;;;;17.23;75.81;100352.06;1297481;22;636;-80
2022/11/01 02:34:50;;;;;;;;;;;;;;;17.23;76.21;100348.53;1297421;22;787;-79
2022/11/01 02:35:41;;;;;;;;;;;;;;;17.23;75.96;100349.38;1297543;22;649;-80
2022/11/01 02:36:31;;;;;;;;;;;;;;;17.22;75.45;100341.47;1297659;22;814;-80
2022/11/01 02:37:21;;;;;;;;;;;;;;;17.21;76.05;100346.00;1297652;22;616;-79
2022/11/01 02:38:12;;;;;;;;;;;;;;;17.22;75.83;100341.47;1297539;22;691;-79
2022/11/01 02:39:02;;;;;;;;;;;;;;;17.22;76.51;100346.84;1297476;22;613;-79
2022/11/01 02:39:53;;;;;;;;;;;;;;;17.23;76.36;100351.22;1297669;22;664;-79
2022/11/01 02:40:43;;;;;;;;;;;;;;;17.21;75.48;100350.53;1297456;22;649;-79
2022/11/01 02:41:34;;;;;;;;;;;;;;;17.22;75.34;100352.22;1297531;22;691;-80
2022/11/01 02:42:24;;;;;;;;;;;;;;;17.23;75.84;100357.47;1297337;22;1914;-79
2022/11/01 02:43:15;;;;;;;;;;;;;;;17.22;76.07;100352.22;1297424;22;748;-80
2022/11/01 02:44:05;;;;;;;;;;;;;;;17.23;76.41;100362.00;1297455;22;647;-79
2022/11/01 02:44:56;;;;;;;;;;;;;;;17.24;75.98;100363.69;1297414;22;885;-79
2022/11/01 02:45:46;;;;;;;;;;;;;;;17.23;75.49;100359.31;1297559;22;617;-79
2022/11/01 02:47:45;;;;;;;;;;;;;;;17.21;76.45;100367.53;1295589;22;609;-79
2022/11/01 02:48:36;;;;;;;;;;;;;;;17.20;75.14;100357.75;1297589;22;621;-79
2022/11/01 02:49:26;;;;;;;;;;;;;;;17.21;76.15;100361.31;1297446;22;625;-79
2022/11/01 02:50:17;;;;;;;;;;;;;;;17.20;76.02;100356.91;1297243;22;1100;-79
2022/11/01 02:51:07;;;;;;;;;;;;;;;17.18;75.84;100369.72;1297621;22;633;-79
2022/11/01 02:51:57;;;;;;;;;;;;;;;17.21;76.48;100362.16;1297316;22;832;-80
2022/11/01 02:52:48;;;;;;;;;;;;;;;17.24;76.46;100361.84;1297690;22;640;-79
2022/11/01 02:53:38;;;;;;;;;;;;;;;17.23;75.40;100357.47;1297427;22;949;-79
2022/11/01 02:54:29;;;;;;;;;;;;;;;17.24;75.83;100361.84;1297572;22;648;-79
2022/11/01 02:55:28;;;;;;;;;;;;;;;17.24;75.61;100361.00;1297435;22;629;-79
2022/11/01 02:56:19;;;;;;;;;;;;;;;17.24;75.72;100356.47;1296817;22;652;-80
2022/11/01 02:57:09;;;;;;;;;;;;;;;17.24;76.52;100361.00;1297688;22;632;-79
2022/11/01 02:57:59;;;;;;;;;;;;;;;17.24;76.37;100350.22;1297329;22;652;-79
2022/11/01 02:58:50;;;;;;;;;;;;;;;17.22;75.36;100363.00;1297546;22;684;-79
2022/11/01 02:59:40;;;;;;;;;;;;;;;17.23;75.40;100353.94;1297415;22;664;-80
2022/11/01 03:00:31;;;;;;;;;;;;;;;17.23;75.26;100364.69;1297633;22;626;-80
2022/11/01 03:01:21;;;;;;;;;;;;;;;17.23;76.58;100364.69;1297736;22;663;-80
2022/11/01 03:02:11;;;;;;;;;;;;;;;17.23;76.42;100359.31;1297383;22;1944;-80
2022/11/01 03:03:02;;;;;;;;;;;;;;;17.23;76.26;100362.00;1297606;22;649;-81
2022/11/01 03:03:52;;;;;;;;;;;;;;;17.23;75.69;100362.00;1297516;22;597;-81
2022/11/01 03:04:43;;;;;;;;;;;;;;;17.22;76.00;100373.78;1297640;22;618;-80
2022/11/01 03:05:33;;;;;;;;;;;;;;;17.21;75.80;100361.31;1297710;22;629;-80
2022/11/01 03:06:24;;;;;;;;;;;;;;;17.20;76.14;100365.84;1297547;22;622;-80
2022/11/01 03:07:14;;;;;;;;;;;;;;;17.17;76.15;100366.19;1297713;22;680;-80
2022/11/01 03:08:04;;;;;;;;;;;;;;;17.19;76.53;100363.34;1297685;22;648;-79
2022/11/01 03:08:56;;;;;;;;;;;;;;;17.18;75.77;100369.72;1297614;22;691;-80
2022/11/01 03:09:46;;;;;;;;;;;;;;;17.17;75.69;100368.03;1297590;22;597;-79
2022/11/01 03:10:37;;;;;;;;;;;;;;;17.14;75.76;100368.31;1297742;22;629;-80
2022/11/01 03:11:27;;;;;;;;;;;;;;;17.13;75.79;100374.72;1297444;22;616;-79
2022/11/01 03:12:18;;;;;;;;;;;;;;;17.17;75.82;100378.78;1297433;22;656;-79
2022/11/01 03:13:08;;;;;;;;;;;;;;;17.12;75.65;100368.47;1297448;22;626;-79
2022/11/01 03:13:59;;;;;;;;;;;;;;;17.09;75.38;100367.94;1297506;22;655;-80
2022/11/01 03:14:50;;;;;;;;;;;;;;;17.12;76.22;100381.09;1297538;22;690;-80
2022/11/01 03:15:40;;;;;;;;;;;;;;;17.04;75.54;100381.84;1298352;22;695;-79
2022/11/01 03:16:31;;;;;;;;;;;;;;;17.07;75.94;100378.84;1297470;22;620;-78
2022/11/01 03:17:21;;;;;;;;;;;;;;;17.11;75.95;100385.63;1297684;22;629;-81
2022/11/01 03:18:12;;;;;;;;;;;;;;;17.08;75.88;100385.09;1297511;22;715;-81
2022/11/01 03:19:02;;;;;;;;;;;;;;;17.06;75.87;100384.38;1297408;22;691;-79
2022/11/01 03:19:53;;;;;;;;;;;;;;;17.09;75.75;100381.38;1297429;22;669;-79
2022/11/01 03:20:46;;;;;;;;;;;;;;;17.04;75.31;100381.84;1296444;22;621;-80
2022/11/01 03:21:37;;;;;;;;;;;;;;;17.05;76.31;100380.00;1297597;22;659;-78
2022/11/01 03:22:27;;;;;;;;;;;;;;;16.95;75.52;100391.69;1297437;22;1884;-78
2022/11/01 03:23:17;;;;;;;;;;;;;;;16.98;76.65;100387.84;1297569;22;605;-79
2022/11/01 03:24:08;;;;;;;;;;;;;;;16.93;75.85;100391.00;1297485;22;686;-78
2022/11/01 03:24:58;;;;;;;;;;;;;;;16.97;76.00;100387.00;1297398;22;664;-79
2022/11/01 03:25:49;;;;;;;;;;;;;;;16.97;75.61;100389.69;1297487;22;624;-79
2022/11/01 03:26:39;;;;;;;;;;;;;;;16.94;76.37;100390.00;1297718;22;621;-78
2022/11/01 03:27:31;;;;;;;;;;;;;;;16.89;75.82;100394.13;1297394;22;660;-78
2022/11/01 03:28:21;;;;;;;;;;;;;;;16.93;75.81;100390.16;1297534;22;629;-79
2022/11/01 03:29:12;;;;;;;;;;;;;;;16.93;75.58;100396.38;1297504;22;596;-79
2022/11/01 03:30:03;;;;;;;;;;;;;;;16.93;75.79;100401.75;1297489;22;694;-79
2022/11/01 03:30:53;;;;;;;;;;;;;;;16.98;76.03;100404.84;1297458;22;672;-79
2022/11/01 03:31:44;;;;;;;;;;;;;;;17.02;76.30;100393.78;1297435;22;641;-79
2022/11/01 03:32:34;;;;;;;;;;;;;;;17.06;76.16;100390.63;1297506;22;617;-79
2022/11/01 03:33:24;;;;;;;;;;;;;;;17.06;75.85;100401.38;1297347;22;613;-79
2022/11/01 03:34:15;;;;;;;;;;;;;;;17.05;76.04;100399.69;1297522;22;616;-79
2022/11/01 03:35:05;;;;;;;;;;;;;;;17.05;75.85;100405.06;1297470;22;621;-80
2022/11/01 03:35:56;;;;;;;;;;;;;;;16.93;75.84;100412.53;1297592;22;614;-79
2022/11/01 03:36:47;;;;;;;;;;;;;;;16.94;76.25;100419.59;1297593;22;664;-80
2022/11/01 03:37:37;;;;;;;;;;;;;;;16.93;75.59;100420.59;1296315;22;625;-79
2022/11/01 03:38:28;;;;;;;;;;;;;;;16.87;75.79;100417.66;1296134;22;852;-79
2022/11/01 03:39:18;;;;;;;;;;;;;;;16.83;75.63;100417.13;1296636;22;624;-80
2022/11/01 03:40:08;;;;;;;;;;;;;;;16.80;75.46;100425.50;1296828;22;959;-79
2022/11/01 03:40:59;;;;;;;;;;;;;;;16.82;76.00;100426.19;1297522;22;641;-80
2022/11/01 03:41:49;;;;;;;;;;;;;;;16.90;76.55;100433.50;1297252;22;617;-80
2022/11/01 03:42:40;;;;;;;;;;;;;;;16.92;75.04;100426.97;1297491;22;653;-80
2022/11/01 03:43:30;;;;;;;;;;;;;;;16.85;75.52;100427.72;1297474;22;660;-80
2022/11/01 03:44:20;;;;;;;;;;;;;;;16.82;74.44;100439.66;1297068;22;618;-80
2022/11/01 03:45:11;;;;;;;;;;;;;;;16.79;73.61;100448.03;1296377;22;691;-80
2022/11/01 03:46:01;;;;;;;;;;;;;;;16.78;74.71;100446.34;1298369;22;824;-80
2022/11/01 03:46:52;;;;;;;;;;;;;;;16.78;75.01;100457.09;1297331;22;640;-80
2022/11/01 03:47:42;;;;;;;;;;;;;;;16.78;74.20;100451.72;1297483;22;638;-81
2022/11/01 03:48:33;;;;;;;;;;;;;;;16.75;73.86;100443.09;1297147;22;622;-80
2022/11/01 03:49:23;;;;;;;;;;;;;;;16.66;73.16;100464.50;1296402;22;626;-80
2022/11/01 03:50:13;;;;;;;;;;;;;;;16.60;74.32;100443.53;1296188;22;1082;-80
2022/11/01 03:51:04;;;;;;;;;;;;;;;16.67;74.32;100459.97;1297402;22;656;-80
2022/11/01 03:51:54;;;;;;;;;;;;;;;16.58;73.49;100459.00;1297266;22;676;-80
2022/11/01 03:52:45;;;;;;;;;;;;;;;16.54;74.36;100444.13;1297443;22;633;-80
2022/11/01 03:53:35;;;;;;;;;;;;;;;16.60;73.75;100458.84;1297760;22;707;-80
2022/11/01 03:54:27;;;;;;;;;;;;;;;16.59;72.97;100466.06;1296747;22;641;-80
2022/11/01 03:55:18;;;;;;;;;;;;;;;16.49;71.83;100470.59;1297520;22;701;-79
2022/11/01 03:56:08;;;;;;;;;;;;;;;16.41;71.99;100467.81;1297215;22;620;-80
2022/11/01 03:56:59;;;;;;;;;;;;;;;16.41;71.58;100478.59;1297499;22;612;-80
2022/11/01 03:57:49;;;;;;;;;;;;;;;16.32;72.08;100456.09;1297435;22;622;-79
2022/11/01 03:58:44;;;;;;;;;;;;;;;16.33;72.36;100468.53;1297468;22;640;-79
2022/11/01 03:59:34;;;;;;;;;;;;;;;16.39;72.78;100467.13;1297475;22;642;-79
2022/11/01 04:00:24;;;;;;;;;;;;;;;16.46;72.81;100473.63;1297699;22;648;-78
2022/11/01 04:01:15;;;;;;;;;;;;;;;16.35;71.79;100457.63;1297798;22;691;-79
2022/11/01 04:02:05;;;;;;;;;;;;;;;16.33;72.71;100479.28;1297466;22;1897;-79
2022/11/01 04:02:56;;;;;;;;;;;;;;;16.38;73.85;100478.03;1297373;22;625;-79
2022/11/01 04:03:46;;;;;;;;;;;;;;;16.42;72.32;100474.91;1297813;22;695;-78
2022/11/01 04:04:37;;;;;;;;;;;;;;;16.36;72.21;100477.31;1297809;22;664;-78
2022/11/01 04:05:27;;;;;;;;;;;;;;;16.42;72.90;100471.38;1297866;22;629;-78
2022/11/01 04:06:17;;;;;;;;;;;;;;;16.50;73.22;100484.91;1297790;22;668;-77
2022/11/01 04:07:08;;;;;;;;;;;;;;;16.44;73.28;100480.13;1297807;22;604;-78
2022/11/01 04:07:58;;;;;;;;;;;;;;;16.41;71.46;100485.81;1297742;22;649;-79
2022/11/01 04:08:49;;;;;;;;;;;;;;;16.39;73.30;100485.09;1297116;22;652;-78
2022/11/01 04:09:39;;;;;;;;;;;;;;;16.39;72.30;100493.16;1297954;22;601;-79
2022/11/01 04:10:30;;;;;;;;;;;;;;;16.46;74.53;100492.44;1297819;22;613;-79
2022/11/01 04:11:20;;;;;;;;;;;;;;;16.57;73.97;100491.41;1297962;22;636;-79
2022/11/01 04:12:10;;;;;;;;;;;;;;;16.61;72.74;100498.19;1298664;22;652;-78
2022/11/01 04:13:01;;;;;;;;;;;;;;;16.58;72.82;100507.41;1297697;22;632;-79
2022/11/01 04:13:51;;;;;;;;;;;;;;;16.54;73.24;100505.16;1297651;22;625;-79
2022/11/01 04:20:33;;;;;;;;;;;;;;;16.57;72.85;100512.94;1295754;22;644;-80
2022/11/01 04:21:24;;;;;;;;;;;;;;;16.58;74.63;100509.25;1297747;22;663;-79
2022/11/01 04:22:14;;;;;;;;;;;;;;;16.59;73.05;100513.63;1297822;22;1944;-79
2022/11/01 04:23:05;;;;;;;;;;;;;;;16.52;73.71;100510.66;1297814;22;593;-79
2022/11/01 04:23:55;;;;;;;;;;;;;;;16.40;71.18;100501.09;1297934;22;625;-79
2022/11/01 04:24:46;;;;;;;;;;;;;;;16.31;71.18;100518.94;1297688;22;609;-79
2022/11/01 04:25:36;;;;;;;;;;;;;;;16.28;72.75;100526.47;1297832;22;645;-79
2022/11/01 04:26:26;;;;;;;;;;;;;;;16.25;72.58;100510.59;1297731;22;605;-79
2022/11/01 04:27:17;;;;;;;;;;;;;;;16.20;71.60;100520.94;1297784;22;651;-78
2022/11/01 04:28:07;;;;;;;;;;;;;;;16.08;71.96;100519.41;1298027;22;642;-78
2022/11/01 04:28:58;;;;;;;;;;;;;;;16.04;71.88;100526.06;1297768;22;637;-78
2022/11/01 04:29:48;;;;;;;;;;;;;;;16.04;71.40;100526.06;1297902;22;648;-79
2022/11/01 04:30:39;;;;;;;;;;;;;;;16.13;72.32;100519.81;1297860;22;608;-81
2022/11/01 04:31:29;;;;;;;;;;;;;;;16.25;73.06;100519.53;1297846;22;684;-80
2022/11/01 04:32:19;;;;;;;;;;;;;;;16.33;72.32;100527.69;1297797;22;641;-80
2022/11/01 04:33:10;;;;;;;;;;;;;;;16.36;72.60;100525.72;1297720;22;699;-79
2022/11/01 04:34:00;;;;;;;;;;;;;;;16.39;71.27;100528.13;1297304;22;605;-79